createdAt,value
2018-07-27T04:58:55.595Z,47.70
2018-07-27T05:01:24.151Z,47.00
2018-07-27T05:03:52.670Z,46.60
2018-07-27T05:06:22.250Z,46.40
2018-07-27T05:08:56.099Z,46.10
2018-07-27T05:11:24.577Z,46.20
2018-07-27T05:13:53.063Z,46.40
2018-07-27T05:16:22.132Z,46.20
2018-07-27T05:18:50.606Z,45.90
2018-07-27T05:21:19.159Z,45.90
2018-07-27T05:23:47.635Z,45.70
2018-07-27T05:26:16.162Z,45.50
2018-07-27T05:28:44.640Z,45.60
2018-07-27T05:31:13.116Z,45.40
2018-07-27T05:33:42.386Z,45.50
2018-07-27T05:36:10.876Z,45.60
2018-07-27T05:38:39.323Z,45.70
2018-07-27T05:41:07.763Z,45.30
2018-07-27T05:43:36.561Z,45.30
2018-07-27T05:46:05.174Z,45.60
2018-07-27T05:48:33.754Z,45.20
2018-07-27T05:51:02.207Z,45.20
2018-07-27T05:53:30.779Z,45.10
2018-07-27T05:55:59.251Z,45.10
2018-07-27T05:58:27.720Z,45.30
2018-07-27T06:00:56.245Z,45.10
2018-07-27T06:03:24.723Z,45.10
2018-07-27T06:05:53.180Z,45.30
2018-07-27T06:08:21.711Z,45.20
2018-07-27T06:10:50.170Z,45.30
2018-07-27T06:13:18.667Z,45.10
2018-07-27T06:15:47.219Z,45.00
2018-07-27T06:18:15.766Z,44.90
2018-07-27T06:20:44.261Z,44.90
2018-07-27T06:23:12.789Z,44.70
2018-07-27T06:25:41.302Z,44.70
2018-07-27T06:28:10.378Z,45.20
2018-07-27T06:30:38.855Z,45.30
2018-07-27T06:33:07.895Z,45.00
2018-07-27T06:35:36.388Z,45.00
2018-07-27T06:38:04.880Z,44.80
2018-07-27T06:40:33.330Z,45.20
2018-07-27T06:43:01.797Z,45.00
2018-07-27T06:45:30.330Z,44.70
2018-07-27T06:47:58.820Z,44.80
2018-07-27T06:50:27.272Z,44.60
2018-07-27T06:52:56.502Z,44.80
2018-07-27T06:55:24.984Z,44.70
2018-07-27T06:57:53.905Z,44.60
2018-07-27T07:00:22.384Z,44.10
2018-07-27T07:02:50.847Z,44.20
2018-07-27T07:05:19.301Z,44.10
2018-07-27T07:07:47.947Z,44.00
2018-07-27T07:10:16.447Z,43.60
2018-07-27T07:12:44.884Z,44.00
2018-07-27T07:15:13.964Z,43.80
2018-07-27T07:17:42.398Z,43.50
2018-07-27T07:20:11.516Z,43.30
2018-07-27T07:22:39.988Z,43.50
2018-07-27T07:25:08.504Z,43.10
2018-07-27T07:27:36.948Z,42.80
2018-07-27T07:30:05.507Z,42.70
2018-07-27T07:32:33.994Z,42.40
2018-07-27T07:35:02.497Z,42.50
2018-07-27T07:37:30.968Z,42.10
2018-07-27T07:39:59.415Z,41.90
2018-07-27T07:42:27.863Z,41.20
2018-07-27T07:44:56.400Z,41.10
2018-07-27T07:47:24.969Z,40.90
2018-07-27T07:49:53.450Z,40.70
2018-07-27T07:52:21.996Z,40.90
2018-07-27T07:54:50.525Z,40.30
2018-07-27T07:57:18.980Z,39.60
2018-07-27T07:59:47.492Z,40.20
2018-07-27T08:02:15.988Z,40.50
2018-07-27T08:04:44.497Z,39.90
2018-07-27T08:07:13.029Z,40.00
2018-07-27T08:09:41.517Z,39.30
2018-07-27T08:12:09.963Z,39.40
2018-07-27T08:14:39.136Z,39.10
2018-07-27T08:17:07.620Z,39.70
2018-07-27T08:19:36.150Z,38.70
2018-07-27T08:22:04.596Z,38.80
2018-07-27T08:24:33.071Z,38.90
2018-07-27T08:27:03.438Z,38.80
2018-07-27T08:29:36.932Z,39.00
2018-07-27T08:32:05.831Z,38.00
2018-07-27T08:34:34.431Z,38.20
2018-07-27T08:37:02.929Z,38.00
2018-07-27T08:39:32.634Z,38.40
2018-07-27T08:42:01.668Z,37.00
2018-07-27T08:44:31.307Z,36.60
2018-07-27T08:46:59.803Z,36.80
2018-07-27T08:49:28.311Z,36.70
2018-07-27T08:51:56.766Z,36.30
2018-07-27T08:54:25.268Z,36.00
2018-07-27T08:56:53.765Z,36.30
2018-07-27T08:59:22.234Z,36.30
2018-07-27T09:01:50.696Z,35.50
2018-07-27T09:06:47.899Z,34.90
2018-07-27T09:11:45.818Z,34.20
2018-07-27T09:14:14.342Z,34.30
2018-07-27T09:16:42.880Z,33.10
2018-07-27T09:19:11.349Z,32.70
2018-07-27T09:21:41.108Z,32.40
2018-07-27T09:24:09.681Z,32.60
2018-07-27T09:26:38.137Z,31.50
2018-07-27T09:29:06.705Z,31.30
2018-07-27T09:31:35.204Z,30.60
2018-07-27T09:34:03.743Z,30.10
2018-07-27T09:36:32.222Z,29.90
2018-07-27T09:39:00.742Z,30.70
2018-07-27T09:41:29.203Z,29.60
2018-07-27T09:43:57.757Z,29.60
2018-07-27T09:46:26.241Z,29.30
2018-07-27T09:48:55.155Z,28.90
2018-07-27T09:51:24.814Z,28.50
2018-07-27T09:53:53.300Z,28.30
2018-07-27T09:56:21.888Z,27.70
2018-07-27T09:58:50.390Z,27.20
2018-07-27T10:01:24.214Z,27.50
2018-07-27T10:03:53.696Z,27.30
2018-07-27T10:06:22.200Z,26.70
2018-07-27T10:08:50.683Z,27.10
2018-07-27T10:11:19.422Z,27.30
2018-07-27T10:13:47.861Z,26.50
2018-07-27T10:16:17.307Z,27.10
2018-07-27T10:18:45.906Z,26.50
2018-07-27T10:21:14.384Z,26.30
2018-07-27T10:23:43.093Z,25.80
2018-07-27T10:26:11.788Z,27.20
2018-07-27T10:28:40.264Z,26.20
2018-07-27T10:31:08.819Z,26.20
2018-07-27T10:33:37.271Z,25.30
2018-07-27T10:36:05.867Z,24.80
2018-07-27T10:38:34.443Z,25.50
2018-07-27T10:41:02.989Z,25.30
2018-07-27T10:43:31.578Z,25.10
2018-07-27T10:46:00.030Z,25.10
2018-07-27T10:48:28.512Z,23.90
2018-07-27T10:50:56.985Z,23.70
2018-07-27T10:53:25.451Z,23.70
2018-07-27T10:55:53.919Z,23.70
2018-07-27T10:58:22.459Z,22.90
2018-07-27T11:00:50.905Z,22.90
2018-07-27T11:03:19.369Z,23.40
2018-07-27T11:05:47.824Z,23.20
2018-07-27T11:08:16.282Z,24.10
2018-07-27T11:10:44.745Z,23.20
2018-07-27T11:13:13.192Z,22.90
2018-07-27T11:15:41.711Z,23.20
2018-07-27T11:18:10.183Z,23.10
2018-07-27T11:20:38.713Z,23.00
2018-07-27T11:23:07.233Z,22.60
2018-07-27T11:25:35.757Z,22.60
2018-07-27T11:28:04.170Z,22.70
2018-07-27T11:30:32.612Z,23.60
2018-07-27T11:33:01.119Z,21.80
2018-07-27T11:35:29.590Z,22.80
2018-07-27T11:37:58.665Z,21.80
2018-07-27T11:40:27.103Z,21.50
2018-07-27T11:42:55.644Z,21.90
2018-07-27T11:45:24.148Z,22.20
2018-07-27T11:47:52.694Z,21.90
2018-07-27T11:50:21.251Z,22.00
2018-07-27T11:52:49.760Z,22.20
2018-07-27T11:55:18.219Z,22.10
2018-07-27T11:57:46.783Z,22.30
2018-07-27T12:00:15.269Z,21.20
2018-07-27T12:02:43.820Z,21.00
2018-07-27T12:05:12.731Z,21.20
2018-07-27T12:07:41.244Z,20.70
2018-07-27T12:10:09.764Z,21.10
2018-07-27T12:12:38.284Z,22.20
2018-07-27T12:15:07.145Z,21.10
2018-07-27T12:17:35.378Z,21.10
2018-07-27T12:20:04.276Z,20.90
2018-07-27T12:22:32.736Z,20.00
2018-07-27T12:25:01.324Z,20.50
2018-07-27T12:27:30.273Z,20.10
2018-07-27T12:29:58.823Z,19.90
2018-07-27T12:32:27.279Z,20.50
2018-07-27T12:34:55.939Z,20.60
2018-07-27T12:37:24.401Z,19.20
2018-07-27T12:39:53.343Z,20.50
2018-07-27T12:42:21.826Z,19.50
2018-07-27T12:44:50.340Z,20.10
2018-07-27T12:47:18.812Z,19.10
2018-07-27T12:49:47.274Z,19.80
2018-07-27T12:52:15.856Z,20.70
2018-07-27T12:54:44.323Z,19.30
2018-07-27T12:57:12.859Z,19.00
2018-07-27T12:59:41.335Z,18.80
2018-07-27T13:02:09.786Z,19.70
2018-07-27T13:04:38.279Z,19.10
2018-07-27T13:07:06.724Z,18.70
2018-07-27T13:09:35.244Z,18.90
2018-07-27T13:12:03.708Z,19.50
2018-07-27T13:17:00.623Z,18.50
2018-07-27T13:19:29.102Z,19.00
2018-07-27T13:21:57.753Z,18.50
2018-07-27T13:26:54.643Z,19.50
2018-07-27T13:29:23.126Z,18.90
2018-07-27T13:31:54.726Z,19.20
2018-07-27T13:34:31.604Z,19.20
2018-07-27T13:37:01.171Z,18.30
2018-07-27T13:39:29.691Z,19.00
2018-07-27T13:41:59.159Z,18.80
2018-07-27T13:44:27.611Z,18.90
2018-07-27T13:46:56.322Z,18.30
2018-07-27T13:49:24.935Z,19.00
2018-07-27T13:51:53.590Z,18.80
2018-07-27T13:54:22.142Z,18.70
2018-07-27T13:56:50.639Z,18.30
2018-07-27T13:59:19.337Z,17.60
2018-07-27T14:01:49.119Z,17.60
2018-07-27T14:04:17.636Z,17.60
2018-07-27T14:06:47.866Z,18.20
2018-07-27T14:09:16.507Z,18.10
2018-07-27T14:11:45.010Z,17.60
2018-07-27T14:14:13.737Z,18.50
2018-07-27T14:16:42.543Z,18.00
2018-07-27T14:19:11.423Z,18.60
2018-07-27T14:21:39.976Z,18.10
2018-07-27T14:24:08.572Z,18.20
2018-07-27T14:26:37.165Z,18.70
2018-07-27T14:29:05.681Z,18.60
2018-07-27T14:31:34.145Z,17.90
2018-07-27T14:34:02.651Z,18.20
2018-07-27T14:36:31.104Z,18.20
2018-07-27T14:38:59.580Z,17.90
2018-07-27T14:41:28.047Z,17.70
2018-07-27T14:43:57.127Z,17.80
2018-07-27T14:46:25.635Z,18.90
2018-07-27T14:48:54.119Z,18.20
2018-07-27T14:51:22.608Z,18.30
2018-07-27T14:53:51.164Z,19.20
2018-07-27T14:56:19.710Z,19.10
2018-07-27T14:58:48.294Z,18.10
2018-07-27T15:01:16.785Z,17.50
2018-07-27T15:03:45.267Z,18.40
2018-07-27T15:06:13.757Z,17.60
2018-07-27T15:08:42.238Z,18.00
2018-07-27T15:11:14.863Z,17.50
2018-07-27T15:13:43.371Z,17.50
2018-07-27T15:16:12.448Z,17.90
2018-07-27T15:18:40.947Z,17.80
2018-07-27T15:21:09.550Z,17.30
2018-07-27T15:23:38.224Z,17.30
2018-07-27T15:26:06.746Z,17.20
2018-07-27T15:28:35.559Z,16.90
2018-07-27T15:31:04.116Z,17.50
2018-07-27T15:33:32.797Z,16.80
2018-07-27T15:36:01.362Z,16.90
2018-07-27T15:38:29.948Z,16.80
2018-07-27T15:40:58.578Z,17.40
2018-07-27T15:43:27.145Z,17.00
2018-07-27T15:45:55.635Z,17.00
2018-07-27T15:48:24.241Z,17.40
2018-07-27T15:50:56.551Z,17.30
2018-07-27T15:53:25.775Z,17.20
2018-07-27T15:55:54.243Z,17.70
2018-07-27T15:58:22.792Z,17.40
2018-07-27T16:00:51.358Z,17.80
2018-07-27T16:03:19.979Z,17.10
2018-07-27T16:05:48.479Z,17.60
2018-07-27T16:08:17.098Z,17.40
2018-07-27T16:10:45.588Z,17.90
2018-07-27T16:13:14.224Z,17.50
2018-07-27T16:15:42.756Z,17.40
2018-07-27T16:18:11.263Z,17.30
2018-07-27T16:20:39.967Z,17.60
2018-07-27T16:23:08.484Z,17.70
2018-07-27T16:25:37.653Z,16.60
2018-07-27T16:28:06.346Z,16.80
2018-07-27T16:30:34.898Z,16.40
2018-07-27T16:33:03.462Z,16.40
2018-07-27T16:35:32.024Z,16.60
2018-07-27T16:38:00.610Z,16.40
2018-07-27T16:40:29.076Z,16.10
2018-07-27T16:42:57.617Z,16.20
2018-07-27T16:45:26.102Z,17.10
2018-07-27T16:47:54.595Z,17.20
2018-07-27T16:50:23.140Z,17.50
2018-07-27T16:52:52.530Z,16.70
2018-07-27T16:55:21.016Z,16.80
2018-07-27T16:57:49.582Z,16.30
2018-07-27T17:00:18.089Z,16.60
2018-07-27T17:02:46.645Z,16.80
2018-07-27T17:05:15.154Z,16.50
2018-07-27T17:07:43.671Z,16.50
2018-07-27T17:10:12.153Z,16.80
2018-07-27T17:12:41.416Z,16.80
2018-07-27T17:15:10.031Z,17.50
2018-07-27T17:17:38.718Z,17.30
2018-07-27T17:20:07.937Z,18.30
2018-07-27T17:22:36.504Z,17.50
2018-07-27T17:25:05.202Z,17.30
2018-07-27T17:27:33.770Z,17.60
2018-07-27T17:30:02.256Z,17.40
2018-07-27T17:32:30.751Z,17.70
2018-07-27T17:35:00.012Z,18.50
2018-07-27T17:37:28.609Z,18.20
2018-07-27T17:39:57.103Z,19.10
2018-07-27T17:42:25.666Z,18.50
2018-07-27T17:44:54.192Z,18.60
2018-07-27T17:47:22.848Z,18.70
2018-07-27T17:49:51.437Z,19.30
2018-07-27T17:52:20.031Z,18.30
2018-07-27T17:54:48.651Z,18.90
2018-07-27T17:57:17.225Z,18.90
2018-07-27T17:59:45.732Z,18.30
2018-07-27T18:02:14.281Z,18.70
2018-07-27T18:04:42.964Z,18.80
2018-07-27T18:07:11.706Z,18.70
2018-07-27T18:09:40.090Z,19.10
2018-07-27T18:12:08.625Z,19.20
2018-07-27T18:14:37.111Z,20.10
2018-07-27T18:17:05.705Z,19.60
